Time;durP1;ratioP1;P1;durP2;ratioP2;P2;SDS_P1;SDS_P2;PMS_P1;PMS_P2;Temp;Humidity;BMP_temperature;BMP_pressure;BME280_temperature;BME280_humidity;BME280_pressure;Samples;Min_cycle;Max_cycle;Signal;HPM_P1;HPM_P2
2023/07/23 00:01:24;;;;;;;7.47;6.18;;;24.90;56.40;;;;;;6166527;27;81689;-64
2023/07/23 00:04:24;;;;;;;10.57;6.90;;;24.90;56.40;;;;;;6155732;27;80509;-62
2023/07/23 00:07:24;;;;;;;8.65;6.88;;;24.90;56.60;;;;;;6177115;27;81797;-66
2023/07/23 00:10:25;;;;;;;10.60;6.90;;;24.90;56.70;;;;;;6166390;27;81353;-66
2023/07/23 00:13:25;;;;;;;9.35;7.05;;;24.90;56.40;;;;;;6186507;27;82254;-65
2023/07/23 00:16:26;;;;;;;9.02;6.20;;;24.90;56.30;;;;;;6165263;27;80596;-65
2023/07/23 00:19:26;;;;;;;11.38;6.43;;;24.90;56.70;;;;;;6183188;27;80472;-66
2023/07/23 00:22:27;;;;;;;14.50;7.18;;;24.90;56.40;;;;;;6175301;27;82184;-64
2023/07/23 00:25:28;;;;;;;12.98;7.22;;;24.90;56.40;;;;;;6158263;27;80317;-57
2023/07/23 00:28:28;;;;;;;9.80;6.57;;;24.90;56.30;;;;;;6159887;27;80892;-54
2023/07/23 00:31:29;;;;;;;11.25;6.88;;;24.80;56.20;;;;;;6166220;27;83251;-58
2023/07/23 00:34:30;;;;;;;11.23;7.18;;;24.80;56.40;;;;;;6162467;27;80466;-56
2023/07/23 00:37:31;;;;;;;12.30;7.03;;;24.70;56.60;;;;;;6165558;27;83413;-56
2023/07/23 00:40:32;;;;;;;11.90;6.78;;;24.60;56.90;;;;;;6161170;27;80453;-56
2023/07/23 00:43:32;;;;;;;8.68;6.65;;;24.60;56.50;;;;;;6162801;27;82425;-58
2023/07/23 00:46:33;;;;;;;11.32;6.72;;;24.60;56.60;;;;;;6166622;27;82064;-57
2023/07/23 00:49:34;;;;;;;13.85;6.97;;;24.70;56.90;;;;;;6167010;27;80692;-58
2023/07/23 00:52:34;;;;;;;11.65;6.32;;;24.70;56.60;;;;;;6146270;27;81287;-57
2023/07/23 00:55:35;;;;;;;9.32;5.82;;;24.70;56.40;;;;;;6147662;27;80547;-58
2023/07/23 00:58:35;;;;;;;8.00;6.13;;;24.70;56.30;;;;;;6144477;27;83688;-58
2023/07/23 01:01:36;;;;;;;10.40;6.22;;;24.70;56.10;;;;;;6159195;27;83320;-58
2023/07/23 01:04:36;;;;;;;10.68;6.70;;;24.70;56.30;;;;;;6161534;27;82124;-57
2023/07/23 01:07:37;;;;;;;9.70;5.88;;;24.70;56.30;;;;;;6169478;27;85873;-58
2023/07/23 01:10:38;;;;;;;9.88;5.88;;;24.70;56.20;;;;;;6171045;27;80642;-59
2023/07/23 01:13:38;;;;;;;9.60;6.28;;;24.70;56.20;;;;;;6171539;27;80730;-55
2023/07/23 01:16:39;;;;;;;12.73;6.57;;;24.70;56.00;;;;;;6169724;27;82456;-56
2023/07/23 01:19:40;;;;;;;11.20;6.32;;;24.70;56.20;;;;;;6172165;27;80323;-57
2023/07/23 01:22:40;;;;;;;10.80;7.18;;;24.70;56.00;;;;;;6158766;27;85635;-57
2023/07/23 01:25:41;;;;;;;9.82;6.53;;;24.80;56.10;;;;;;6165737;27;85986;-60
2023/07/23 01:28:42;;;;;;;8.23;5.72;;;24.80;56.10;;;;;;6158297;27;80691;-56
2023/07/23 01:31:42;;;;;;;8.75;6.00;;;24.80;56.10;;;;;;6170821;27;80856;-59
2023/07/23 01:34:42;;;;;;;8.30;5.70;;;24.70;56.00;;;;;;6172133;27;80608;-58
2023/07/23 01:37:43;;;;;;;9.52;6.88;;;24.70;56.00;;;;;;6169613;27;81815;-56
2023/07/23 01:40:44;;;;;;;7.95;5.85;;;24.70;55.90;;;;;;6171186;27;81409;-57
2023/07/23 01:43:44;;;;;;;9.57;6.35;;;24.70;55.90;;;;;;6177997;27;83240;-58
2023/07/23 01:46:46;;;;;;;9.10;6.70;;;24.70;56.00;;;;;;6170350;27;82835;-57
2023/07/23 01:49:47;;;;;;;15.95;5.93;;;24.70;56.00;;;;;;6199618;27;81047;-59
2023/07/23 01:52:47;;;;;;;9.38;6.82;;;24.70;56.00;;;;;;6170412;27;82109;-58
2023/07/23 01:55:48;;;;;;;7.68;5.82;;;24.70;55.70;;;;;;6168680;27;83222;-59
2023/07/23 01:58:48;;;;;;;8.15;5.53;;;24.60;55.80;;;;;;6172390;27;83096;-59
2023/07/23 02:01:49;;;;;;;8.57;5.40;;;24.70;55.90;;;;;;6168020;27;80690;-58
2023/07/23 02:04:49;;;;;;;10.68;6.05;;;24.70;55.90;;;;;;6184351;27;83056;-57
2023/07/23 02:07:50;;;;;;;9.35;5.47;;;24.70;55.90;;;;;;6175166;27;82989;-58
2023/07/23 02:10:50;;;;;;;7.25;5.47;;;24.70;56.00;;;;;;6172368;27;83267;-59
2023/07/23 02:13:51;;;;;;;9.43;6.65;;;24.70;56.00;;;;;;6175128;27;80805;-56
2023/07/23 02:16:51;;;;;;;9.35;6.00;;;24.70;55.60;;;;;;6171561;27;83718;-57
2023/07/23 02:19:52;;;;;;;10.68;6.20;;;24.70;55.60;;;;;;6174344;27;80471;-56
2023/07/23 02:22:53;;;;;;;10.35;6.38;;;24.60;55.40;;;;;;6159436;27;81890;-56
2023/07/23 02:25:53;;;;;;;9.05;6.50;;;24.60;55.30;;;;;;6174527;27;81770;-56
2023/07/23 02:28:54;;;;;;;10.50;5.35;;;24.60;55.70;;;;;;6174065;27;82604;-55
2023/07/23 02:31:54;;;;;;;6.93;5.82;;;24.60;55.70;;;;;;6174157;27;80936;-55
2023/07/23 02:34:55;;;;;;;9.27;6.07;;;24.60;55.60;;;;;;6173808;27;80765;-58
2023/07/23 02:37:55;;;;;;;8.65;6.00;;;24.60;55.60;;;;;;6168329;27;82369;-57
2023/07/23 02:40:56;;;;;;;10.05;5.95;;;24.70;55.90;;;;;;6172190;27;81161;-58
2023/07/23 02:43:57;;;;;;;8.85;5.47;;;24.70;55.80;;;;;;6172458;27;80544;-56
2023/07/23 02:46:57;;;;;;;8.63;6.28;;;24.70;55.70;;;;;;6165835;27;81160;-56
2023/07/23 02:49:58;;;;;;;7.65;5.72;;;24.70;55.40;;;;;;6173825;27;80603;-58
2023/07/23 02:52:58;;;;;;;13.65;5.45;;;24.60;55.30;;;;;;6184024;27;81131;-59
2023/07/23 02:55:59;;;;;;;9.63;5.93;;;24.60;55.20;;;;;;6180203;27;83216;-59
2023/07/23 02:59:01;;;;;;;7.70;5.82;;;24.60;55.20;;;;;;6167227;27;81574;-58
2023/07/23 03:02:02;;;;;;;9.30;5.63;;;24.60;55.50;;;;;;6177869;27;82565;-58
2023/07/23 03:05:03;;;;;;;7.32;5.35;;;24.60;55.50;;;;;;6172584;27;83187;-57
2023/07/23 03:08:03;;;;;;;8.95;5.38;;;24.60;55.50;;;;;;6160558;27;82451;-56
2023/07/23 03:11:04;;;;;;;7.65;5.65;;;24.60;56.10;;;;;;6152289;27;83066;-64
2023/07/23 03:14:04;;;;;;;8.00;5.85;;;24.60;55.30;;;;;;6162714;27;83666;-62
2023/07/23 03:17:05;;;;;;;8.20;5.40;;;24.50;55.30;;;;;;6164073;27;80906;-63
2023/07/23 03:20:06;;;;;;;10.38;5.50;;;24.50;55.50;;;;;;6163329;27;83466;-62
2023/07/23 03:23:07;;;;;;;6.75;5.30;;;24.50;55.60;;;;;;6157885;27;80043;-62
2023/07/23 03:26:08;;;;;;;7.75;5.30;;;24.50;55.60;;;;;;6186154;27;80552;-62
2023/07/23 03:29:08;;;;;;;10.13;5.90;;;24.50;55.60;;;;;;6175583;27;81096;-64
2023/07/23 03:32:09;;;;;;;9.93;5.57;;;24.50;55.60;;;;;;6154924;27;81160;-63
2023/07/23 03:35:10;;;;;;;8.20;5.90;;;24.50;55.60;;;;;;6162049;27;81858;-63
2023/07/23 03:38:10;;;;;;;8.77;5.13;;;24.60;55.70;;;;;;6150662;27;80169;-63
2023/07/23 03:41:11;;;;;;;9.13;5.55;;;24.60;55.60;;;;;;6159252;27;82447;-64
2023/07/23 03:44:11;;;;;;;6.13;4.88;;;24.60;55.70;;;;;;6154708;27;83937;-64
2023/07/23 03:47:12;;;;;;;11.25;5.43;;;24.60;55.70;;;;;;6150682;27;80051;-64
2023/07/23 03:50:12;;;;;;;9.40;5.47;;;24.60;55.60;;;;;;6178488;27;80690;-63
2023/07/23 03:53:13;;;;;;;7.38;5.50;;;24.60;55.60;;;;;;6182974;27;81423;-65
2023/07/23 03:56:14;;;;;;;8.00;5.32;;;24.60;55.70;;;;;;6174997;27;81070;-64
2023/07/23 03:59:14;;;;;;;10.95;5.05;;;24.70;55.70;;;;;;6174162;27;86205;-64
2023/07/23 04:02:15;;;;;;;7.03;4.90;;;24.70;55.60;;;;;;6173358;27;83397;-64
2023/07/23 04:05:15;;;;;;;9.95;5.35;;;24.70;55.50;;;;;;6159868;27;82068;-59
2023/07/23 04:08:16;;;;;;;8.00;5.68;;;24.70;55.60;;;;;;6170640;27;83453;-58
2023/07/23 04:11:16;;;;;;;8.27;5.40;;;24.70;55.50;;;;;;6152469;27;82971;-58
2023/07/23 04:14:17;;;;;;;7.60;5.60;;;24.70;55.50;;;;;;6151038;27;80983;-59
2023/07/23 04:17:18;;;;;;;7.50;5.50;;;24.70;55.40;;;;;;6150602;27;80949;-57
2023/07/23 04:20:18;;;;;;;10.00;6.00;;;24.70;55.60;;;;;;6170216;27;82420;-58
2023/07/23 04:23:19;;;;;;;10.75;5.82;;;24.70;55.80;;;;;;6158295;27;83924;-61
2023/07/23 04:26:21;;;;;;;11.02;5.40;;;24.70;56.00;;;;;;6171393;27;83486;-61
2023/07/23 04:29:22;;;;;;;9.55;5.75;;;24.70;56.10;;;;;;6171865;27;80568;-60
2023/07/23 04:32:23;;;;;;;7.93;5.80;;;24.70;56.10;;;;;;6173752;27;80717;-60
2023/07/23 04:35:23;;;;;;;9.10;5.50;;;24.70;56.20;;;;;;6172035;27;80429;-61
2023/07/23 04:38:24;;;;;;;10.40;5.90;;;24.80;56.00;;;;;;6178781;27;80996;-61
2023/07/23 04:41:24;;;;;;;11.57;5.70;;;24.80;56.30;;;;;;6167350;27;80473;-59
2023/07/23 04:44:25;;;;;;;7.72;5.60;;;24.80;56.30;;;;;;6162244;27;80426;-58
2023/07/23 04:47:25;;;;;;;8.10;5.60;;;24.80;56.30;;;;;;6165188;27;80905;-59
2023/07/23 04:50:26;;;;;;;12.07;5.93;;;24.80;56.40;;;;;;6162520;27;80281;-59
2023/07/23 04:53:26;;;;;;;7.72;5.50;;;24.80;56.30;;;;;;6171174;27;83071;-58
2023/07/23 04:56:27;;;;;;;9.70;5.70;;;24.90;56.30;;;;;;6172385;27;82591;-60
2023/07/23 04:59:28;;;;;;;7.93;5.68;;;24.90;56.10;;;;;;6158549;27;80485;-61
2023/07/23 05:02:28;;;;;;;9.88;6.20;;;24.90;56.00;;;;;;6168972;27;80845;-59
2023/07/23 05:05:29;;;;;;;8.60;5.13;;;24.90;56.10;;;;;;6167951;27;80407;-63
2023/07/23 05:08:29;;;;;;;9.35;5.57;;;24.90;56.00;;;;;;6165853;27;80656;-61
2023/07/23 05:11:30;;;;;;;9.55;5.10;;;24.90;56.00;;;;;;6164350;27;80227;-60
2023/07/23 05:14:30;;;;;;;12.05;5.18;;;24.90;56.00;;;;;;6163428;27;80334;-61
2023/07/23 05:17:31;;;;;;;11.70;5.50;;;24.90;56.10;;;;;;6159966;27;84537;-61
2023/07/23 05:20:31;;;;;;;20.15;8.80;;;25.00;56.40;;;;;;6154508;27;81004;-61
2023/07/23 05:23:32;;;;;;;22.17;8.38;;;25.00;55.60;;;;;;6165088;27;83266;-60
2023/07/23 05:26:32;;;;;;;23.35;8.27;;;24.90;55.80;;;;;;6169005;27;81517;-61
2023/07/23 05:29:33;;;;;;;20.83;8.77;;;25.00;56.10;;;;;;6158348;27;80846;-61
2023/07/23 05:32:34;;;;;;;17.98;8.38;;;25.00;56.10;;;;;;6166385;27;80295;-60
2023/07/23 05:35:34;;;;;;;21.73;8.00;;;25.00;56.20;;;;;;6174034;27;82854;-59
2023/07/23 05:38:35;;;;;;;18.02;8.88;;;25.10;56.70;;;;;;6171909;27;83753;-60
2023/07/23 05:41:35;;;;;;;17.52;7.65;;;25.10;57.30;;;;;;6170393;27;80979;-61
2023/07/23 05:44:36;;;;;;;13.02;6.95;;;25.10;57.10;;;;;;6161853;27;87569;-60
2023/07/23 05:47:36;;;;;;;11.40;6.10;;;25.10;56.80;;;;;;6162383;27;80776;-60
2023/07/23 05:50:37;;;;;;;15.68;6.60;;;25.10;56.70;;;;;;6170123;27;81082;-62
2023/07/23 05:53:37;;;;;;;16.33;5.55;;;25.20;56.60;;;;;;6159575;27;82267;-62
2023/07/23 05:56:38;;;;;;;13.65;5.90;;;25.20;57.60;;;;;;6154404;27;80770;-59
2023/07/23 05:59:38;;;;;;;12.30;5.55;;;25.20;56.60;;;;;;6169208;27;80291;-59
2023/07/23 06:02:39;;;;;;;12.43;5.70;;;25.20;56.60;;;;;;6172773;27;80919;-58
2023/07/23 06:05:39;;;;;;;12.27;5.82;;;25.20;56.60;;;;;;6175197;27;80850;-59
2023/07/23 06:08:40;;;;;;;9.35;5.15;;;25.20;56.70;;;;;;6173773;27;85173;-57
2023/07/23 06:11:41;;;;;;;8.68;4.68;;;25.20;56.60;;;;;;6176993;27;80623;-60
2023/07/23 06:14:42;;;;;;;7.35;4.47;;;25.30;56.50;;;;;;6172929;27;80583;-61
2023/07/23 06:17:42;;;;;;;6.72;4.20;;;25.30;56.50;;;;;;6180355;27;81140;-60
2023/07/23 06:20:43;;;;;;;8.70;4.65;;;25.30;56.50;;;;;;6168471;27;86248;-59
2023/07/23 06:23:43;;;;;;;8.40;4.63;;;25.30;56.40;;;;;;6184976;27;80949;-59
2023/07/23 06:26:44;;;;;;;7.75;4.35;;;25.40;56.40;;;;;;6179587;27;80810;-60
2023/07/23 06:29:44;;;;;;;7.85;4.40;;;25.40;56.10;;;;;;6171609;27;81078;-60
2023/07/23 06:32:45;;;;;;;6.97;4.78;;;25.40;56.20;;;;;;6167714;27;80523;-60
2023/07/23 06:35:46;;;;;;;7.22;4.13;;;25.40;56.00;;;;;;6171777;27;80436;-66
2023/07/23 06:38:46;;;;;;;8.18;4.00;;;25.30;55.30;;;;;;6148039;27;80443;-63
2023/07/23 06:41:47;;;;;;;9.32;4.35;;;25.20;55.00;;;;;;6151757;27;83403;-62
2023/07/23 06:44:48;;;;;;;6.40;3.80;;;25.30;55.20;;;;;;6166490;27;80606;-67
2023/07/23 06:47:49;;;;;;;5.78;4.10;;;25.40;55.20;;;;;;6165215;27;80790;-66
2023/07/23 06:50:49;;;;;;;6.68;4.63;;;25.40;54.80;;;;;;6156846;27;80593;-57
2023/07/23 06:53:50;;;;;;;15.85;4.00;;;25.50;55.30;;;;;;6173068;27;80603;-59
2023/07/23 06:56:51;;;;;;;8.07;3.60;;;25.40;55.00;;;;;;6180736;27;82601;-60
2023/07/23 06:59:51;;;;;;;5.15;3.65;;;25.50;55.10;;;;;;6166022;27;80981;-54
2023/07/23 07:02:52;;;;;;;7.30;3.97;;;25.50;55.00;;;;;;6165806;27;81488;-58
2023/07/23 07:05:52;;;;;;;8.45;3.42;;;25.50;55.00;;;;;;6164297;27;82776;-51
2023/07/23 07:08:53;;;;;;;9.65;4.32;;;25.50;54.80;;;;;;6173956;27;82261;-61
2023/07/23 07:11:54;;;;;;;4.85;3.80;;;25.50;54.80;;;;;;6149562;27;82367;-62
2023/07/23 07:14:55;;;;;;;5.45;3.83;;;25.50;54.70;;;;;;6167205;27;81450;-62
2023/07/23 07:17:55;;;;;;;5.50;3.90;;;25.50;54.40;;;;;;6176148;27;81093;-64
2023/07/23 07:20:58;;;;;;;5.82;4.10;;;25.20;54.10;;;;;;6172394;27;80755;-63
2023/07/23 07:23:58;;;;;;;5.13;3.63;;;25.10;54.30;;;;;;6174804;27;85709;-64
2023/07/23 07:26:59;;;;;;;7.13;3.90;;;25.00;54.70;;;;;;6146028;27;80826;-60
2023/07/23 07:30:00;;;;;;;8.07;3.78;;;24.90;54.90;;;;;;6170849;27;80755;-60
2023/07/23 07:33:00;;;;;;;6.40;4.40;;;24.90;54.80;;;;;;6160925;27;81263;-59
2023/07/23 07:36:01;;;;;;;7.80;4.00;;;25.00;55.30;;;;;;6170282;27;81181;-59
2023/07/23 07:39:02;;;;;;;5.70;3.83;;;24.90;55.40;;;;;;6156433;27;85197;-58
2023/07/23 07:42:03;;;;;;;7.57;3.83;;;24.90;55.90;;;;;;6163518;27;82119;-59
2023/07/23 07:45:03;;;;;;;6.50;3.92;;;24.90;56.10;;;;;;6156205;27;80487;-60
2023/07/23 07:48:04;;;;;;;8.20;3.97;;;24.90;55.90;;;;;;6156400;27;84674;-60
2023/07/23 07:51:04;;;;;;;6.97;4.15;;;24.90;56.00;;;;;;6171818;27;80973;-57
2023/07/23 07:54:05;;;;;;;6.07;3.60;;;24.90;55.50;;;;;;6162795;27;81366;-54
2023/07/23 07:57:06;;;;;;;7.57;3.55;;;24.80;54.70;;;;;;6164143;27;83120;-59
2023/07/23 08:00:07;;;;;;;5.82;3.75;;;24.90;54.80;;;;;;6169806;27;80582;-60
2023/07/23 08:03:11;;;;;;;5.38;3.50;;;24.90;54.80;;;;;;6151894;27;80026;-59
2023/07/23 08:06:11;;;;;;;5.47;3.80;;;25.00;54.10;;;;;;6163619;27;80983;-59
2023/07/23 08:09:13;;;;;;;5.22;3.70;;;25.10;54.70;;;;;;6161886;27;82107;-59
2023/07/23 08:12:13;;;;;;;5.82;3.63;;;25.10;54.00;;;;;;6172913;27;80313;-59
2023/07/23 08:15:14;;;;;;;5.13;3.55;;;25.10;53.80;;;;;;6164824;27;81383;-58
2023/07/23 08:18:14;;;;;;;8.77;3.50;;;25.10;53.80;;;;;;6173013;27;82337;-58
2023/07/23 08:21:15;;;;;;;5.63;3.97;;;25.20;54.10;;;;;;6172707;27;82230;-60
2023/07/23 08:24:15;;;;;;;4.03;3.50;;;25.20;54.20;;;;;;6152187;27;82401;-58
2023/07/23 08:27:16;;;;;;;6.03;3.20;;;25.30;54.10;;;;;;6173805;27;80824;-57
2023/07/23 08:30:16;;;;;;;5.13;3.55;;;25.30;54.30;;;;;;6161685;27;82353;-58
2023/07/23 08:33:17;;;;;;;4.43;3.00;;;25.30;54.50;;;;;;6172427;27;80939;-59
2023/07/23 08:36:17;;;;;;;5.25;3.25;;;25.20;53.30;;;;;;6162384;27;82314;-59
2023/07/23 08:39:18;;;;;;;4.95;2.65;;;25.20;53.20;;;;;;6179579;27;80756;-55
2023/07/23 08:42:18;;;;;;;3.65;2.80;;;25.10;53.10;;;;;;6172543;27;80493;-57
2023/07/23 08:45:19;;;;;;;4.50;2.90;;;25.20;53.60;;;;;;6157334;27;81657;-59
2023/07/23 08:48:19;;;;;;;9.02;4.15;;;25.30;53.50;;;;;;6172776;27;81044;-57
2023/07/23 08:51:20;;;;;;;7.45;3.85;;;25.30;53.80;;;;;;6160120;27;82175;-58
2023/07/23 08:54:21;;;;;;;4.88;3.13;;;25.40;53.80;;;;;;6172508;27;81882;-58
2023/07/23 08:57:21;;;;;;;4.63;3.25;;;25.40;53.30;;;;;;6156924;27;80572;-58
2023/07/23 09:00:27;;;;;;;3.70;3.10;;;25.50;53.10;;;;;;6156992;27;80450;-56
2023/07/23 09:03:27;;;;;;;;;;;25.50;52.90;;;;;;6173948;27;80425;-59
2023/07/23 09:06:28;;;;;;;5.15;2.97;;;25.70;52.30;;;;;;6164200;27;80949;-58
2023/07/23 09:09:28;;;;;;;4.68;3.10;;;25.70;51.80;;;;;;6163955;27;80616;-59
2023/07/23 09:12:29;;;;;;;5.07;3.10;;;25.70;51.00;;;;;;6153836;27;81066;-59
2023/07/23 09:15:29;;;;;;;6.93;3.33;;;25.80;51.40;;;;;;6172167;27;80575;-58
2023/07/23 09:18:30;;;;;;;4.20;2.58;;;25.90;50.30;;;;;;6163311;27;80630;-59
2023/07/23 09:21:30;;;;;;;4.47;2.75;;;25.90;49.70;;;;;;6170743;27;80425;-58
2023/07/23 09:24:32;;;;;;;3.10;2.80;;;25.80;48.30;;;;;;6148963;27;80281;-59
2023/07/23 09:27:32;;;;;;;3.65;2.80;;;25.90;49.10;;;;;;6159290;27;81311;-58
2023/07/23 09:30:33;;;;;;;11.50;3.25;;;26.00;48.50;;;;;;6162340;27;82031;-58
2023/07/23 09:33:33;;;;;;;5.60;2.72;;;26.00;47.90;;;;;;6163037;27;81944;-59
2023/07/23 09:36:34;;;;;;;3.58;2.60;;;26.10;47.20;;;;;;6173569;27;80477;-56
2023/07/23 09:39:34;;;;;;;5.00;2.53;;;26.10;48.20;;;;;;6170447;27;82443;-56
2023/07/23 09:42:35;;;;;;;4.15;2.60;;;26.20;48.20;;;;;;6152177;27;80385;-57
2023/07/23 09:45:36;;;;;;;4.60;2.45;;;26.20;48.60;;;;;;6164435;27;81551;-57
2023/07/23 09:48:39;;;;;;;3.53;2.20;;;26.30;48.10;;;;;;6157291;27;82448;-58
2023/07/23 09:51:40;;;;;;;4.07;2.40;;;26.40;47.30;;;;;;6165626;27;84712;-57
2023/07/23 09:54:40;;;;;;;4.32;2.65;;;26.40;47.00;;;;;;6161562;27;80321;-57
2023/07/23 09:57:41;;;;;;;3.38;2.50;;;26.40;46.40;;;;;;6163753;27;83122;-58
2023/07/23 10:00:41;;;;;;;2.72;2.22;;;26.40;46.30;;;;;;6150526;27;80094;-57
2023/07/23 10:03:42;;;;;;;4.13;3.40;;;26.50;46.40;;;;;;6171336;27;80413;-58
2023/07/23 10:06:42;;;;;;;5.85;3.22;;;26.50;46.00;;;;;;6171036;27;80612;-58
2023/07/23 10:09:43;;;;;;;5.63;2.90;;;26.60;45.40;;;;;;6159741;27;83247;-58
2023/07/23 10:12:43;;;;;;;5.28;2.95;;;26.60;45.80;;;;;;6167148;27;81313;-59
2023/07/23 10:15:44;;;;;;;3.00;2.50;;;26.70;45.70;;;;;;6164697;27;80827;-56
2023/07/23 10:18:44;;;;;;;2.90;2.50;;;26.70;46.40;;;;;;6162380;27;81980;-58
2023/07/23 10:21:45;;;;;;;5.70;2.65;;;26.80;46.30;;;;;;6136322;27;82249;-58
2023/07/23 10:24:47;;;;;;;5.13;2.55;;;26.80;46.40;;;;;;6159317;27;81578;-57
2023/07/23 10:27:48;;;;;;;3.75;2.88;;;26.90;44.80;;;;;;6152276;27;81302;-58
2023/07/23 10:30:48;;;;;;;6.03;3.38;;;26.90;44.80;;;;;;6140917;27;83223;-58
2023/07/23 10:33:52;;;;;;;6.82;2.70;;;27.00;44.50;;;;;;6152014;27;83315;-57
2023/07/23 10:36:53;;;;;;;4.35;2.45;;;27.00;45.20;;;;;;6148572;27;82899;-57
2023/07/23 10:39:55;;;;;;;4.28;2.90;;;27.10;45.00;;;;;;6151207;27;82046;-59
2023/07/23 10:42:56;;;;;;;8.40;3.08;;;27.10;44.70;;;;;;6142384;27;81047;-58
2023/07/23 10:45:56;;;;;;;5.43;2.95;;;27.10;44.50;;;;;;6158138;27;80709;-57
2023/07/23 10:48:57;;;;;;;6.18;2.92;;;27.10;44.20;;;;;;6154623;27;83549;-60
2023/07/23 10:51:57;;;;;;;4.47;2.88;;;27.10;43.90;;;;;;6147558;27;82785;-59
2023/07/23 10:54:58;;;;;;;3.83;2.60;;;27.20;44.30;;;;;;6158078;27;82173;-59
2023/07/23 10:57:58;;;;;;;4.32;2.80;;;27.20;44.40;;;;;;6145776;27;82595;-59
2023/07/23 11:00:59;;;;;;;5.53;2.67;;;27.20;44.40;;;;;;6153461;27;81505;-60
2023/07/23 11:04:00;;;;;;;3.53;2.47;;;27.10;42.90;;;;;;6146214;27;82873;-61
2023/07/23 11:07:00;;;;;;;4.38;3.20;;;27.10;44.00;;;;;;6158392;27;80951;-59
2023/07/23 11:10:01;;;;;;;5.47;3.30;;;27.10;44.40;;;;;;6154036;27;82003;-59
2023/07/23 11:13:01;;;;;;;4.07;2.72;;;27.10;44.50;;;;;;6147673;27;81457;-59
2023/07/23 11:16:02;;;;;;;6.18;3.42;;;27.10;44.50;;;;;;6157776;27;81493;-58
2023/07/23 11:19:07;;;;;;;7.93;3.20;;;27.10;44.00;;;;;;6141363;27;83039;-59
2023/07/23 11:22:08;;;;;;;4.20;3.25;;;27.20;43.90;;;;;;6153094;27;81485;-58
2023/07/23 11:25:08;;;;;;;5.75;3.03;;;27.20;43.80;;;;;;6145438;27;81804;-64
2023/07/23 11:28:09;;;;;;;4.97;2.88;;;27.20;43.90;;;;;;6156440;27;81395;-64
2023/07/23 11:31:09;;;;;;;5.53;3.30;;;27.20;43.80;;;;;;6151631;27;82622;-64
2023/07/23 11:34:10;;;;;;;7.40;3.38;;;27.20;44.40;;;;;;6144887;27;82512;-65
2023/07/23 11:37:10;;;;;;;5.22;3.10;;;27.10;44.50;;;;;;6160648;27;85922;-62
2023/07/23 11:40:11;;;;;;;4.20;3.40;;;27.10;45.00;;;;;;6174001;27;80930;-62
2023/07/23 11:43:11;;;;;;;3.35;2.72;;;27.20;44.90;;;;;;6168328;27;81054;-59
2023/07/23 11:46:12;;;;;;;8.00;3.50;;;27.20;44.30;;;;;;6157793;27;82441;-59
2023/07/23 11:49:12;;;;;;;9.90;3.60;;;27.20;44.00;;;;;;6164809;27;80922;-59
2023/07/23 11:52:13;;;;;;;4.70;3.00;;;27.10;43.80;;;;;;6173467;27;80173;-57
2023/07/23 11:55:13;;;;;;;8.50;4.20;;;27.10;44.10;;;;;;6163214;27;81253;-59
2023/07/23 11:58:14;;;;;;;6.57;3.25;;;27.10;44.30;;;;;;6165233;27;85719;-57
2023/07/23 12:01:14;;;;;;;5.22;3.50;;;27.20;44.60;;;;;;6149588;27;82772;-62
2023/07/23 12:04:15;;;;;;;7.38;3.85;;;27.20;44.50;;;;;;6174648;27;82105;-61
2023/07/23 12:07:16;;;;;;;4.80;3.70;;;27.20;44.60;;;;;;6166830;27;81792;-60
2023/07/23 12:10:16;;;;;;;4.93;3.63;;;27.20;44.80;;;;;;6159954;27;81234;-58
2023/07/23 12:13:17;;;;;;;4.93;3.42;;;27.20;45.00;;;;;;6167033;27;81202;-61
2023/07/23 12:16:17;;;;;;;4.05;3.40;;;27.30;45.30;;;;;;6161768;27;84262;-61
2023/07/23 12:19:18;;;;;;;4.75;3.38;;;27.30;45.20;;;;;;6176466;27;80688;-57
2023/07/23 12:22:18;;;;;;;5.07;3.00;;;27.40;45.30;;;;;;6151286;27;80540;-61
2023/07/23 12:25:19;;;;;;;4.32;3.58;;;27.40;44.30;;;;;;6177386;27;80368;-61
2023/07/23 12:28:24;;;;;;;5.35;3.75;;;27.40;44.60;;;;;;6170992;27;81744;-67
2023/07/23 12:31:24;;;;;;;4.57;3.33;;;27.30;44.80;;;;;;6178461;27;81239;-62
2023/07/23 12:34:25;;;;;;;4.95;3.40;;;27.30;44.70;;;;;;6174553;27;81137;-64
2023/07/23 12:37:25;;;;;;;4.00;3.00;;;27.30;44.40;;;;;;6167014;27;80298;-64
2023/07/23 12:40:26;;;;;;;6.90;3.72;;;27.30;44.80;;;;;;6175252;27;80898;-64
2023/07/23 12:43:27;;;;;;;4.32;3.15;;;27.30;45.70;;;;;;6159445;27;81157;-65
2023/07/23 12:46:27;;;;;;;6.00;3.53;;;27.30;45.10;;;;;;6175339;27;80665;-65
2023/07/23 12:49:28;;;;;;;9.90;3.80;;;27.30;44.90;;;;;;6171982;27;81529;-66
2023/07/23 12:52:28;;;;;;;5.28;3.50;;;27.20;44.40;;;;;;6175485;27;80857;-64
2023/07/23 12:55:29;;;;;;;5.68;3.67;;;27.30;44.80;;;;;;6167774;27;81633;-63
2023/07/23 12:58:29;;;;;;;8.52;3.90;;;27.30;44.50;;;;;;6156227;27;82795;-57
2023/07/23 13:01:30;;;;;;;3.67;2.58;;;27.40;45.10;;;;;;6169053;27;80492;-58
2023/07/23 13:04:30;;;;;;;6.68;3.42;;;27.50;44.20;;;;;;6177587;27;82991;-54
2023/07/23 13:07:31;;;;;;;5.40;3.28;;;27.50;44.40;;;;;;6177044;27;81273;-58
2023/07/23 13:10:31;;;;;;;4.93;3.05;;;27.60;44.40;;;;;;6165456;27;81630;-57
2023/07/23 13:13:32;;;;;;;4.15;3.20;;;27.60;44.40;;;;;;6166374;27;83086;-57
2023/07/23 13:16:32;;;;;;;5.45;3.50;;;27.60;43.70;;;;;;6167198;27;80350;-72
2023/07/23 13:19:33;;;;;;;6.70;3.50;;;27.70;44.10;;;;;;6163861;27;82440;-74
2023/07/23 13:22:33;;;;;;;4.57;3.28;;;27.60;44.50;;;;;;6154132;27;82045;-75
2023/07/23 13:25:34;;;;;;;8.63;3.83;;;27.60;44.70;;;;;;6166078;27;81772;-69
2023/07/23 13:28:34;;;;;;;4.25;2.97;;;27.60;45.10;;;;;;6179399;27;80613;-76
2023/07/23 13:31:35;;;;;;;4.30;3.25;;;27.60;44.90;;;;;;6171701;27;81049;-69
2023/07/23 13:34:35;;;;;;;3.20;2.78;;;27.60;44.90;;;;;;6175334;27;80806;-73
2023/07/23 13:37:36;;;;;;;4.80;3.45;;;27.70;44.70;;;;;;6181108;27;80597;-76
2023/07/23 13:40:36;;;;;;;4.38;3.35;;;27.70;44.50;;;;;;6157549;27;82337;-76
2023/07/23 13:43:37;;;;;;;5.55;3.17;;;27.70;44.60;;;;;;6163419;27;80365;-75
2023/07/23 13:46:37;;;;;;;5.13;3.00;;;27.80;45.00;;;;;;6167977;27;81676;-72
2023/07/23 13:49:38;;;;;;;5.05;3.03;;;27.80;45.00;;;;;;6173601;27;89612;-72
2023/07/23 13:52:38;;;;;;;5.20;3.30;;;27.80;44.70;;;;;;6166390;27;82042;-68
2023/07/23 13:55:39;;;;;;;3.72;3.10;;;27.70;44.60;;;;;;6163608;27;80483;-71
2023/07/23 13:58:39;;;;;;;4.95;3.72;;;27.70;43.70;;;;;;6168139;27;80486;-73
2023/07/23 14:01:40;;;;;;;5.65;3.92;;;27.70;43.60;;;;;;6169675;27;82250;-76
2023/07/23 14:04:40;;;;;;;6.78;3.80;;;27.70;43.80;;;;;;6169719;27;80761;-75
2023/07/23 14:07:42;;;;;;;7.00;3.33;;;27.70;44.10;;;;;;6167444;27;82552;-71
2023/07/23 14:10:43;;;;;;;6.22;3.53;;;27.70;44.30;;;;;;6175326;27;81958;-74
2023/07/23 14:13:43;;;;;;;6.13;3.03;;;27.70;44.70;;;;;;6155254;27;81901;-73
2023/07/23 14:16:44;;;;;;;5.45;3.63;;;27.70;44.60;;;;;;6177863;27;81556;-73
2023/07/23 14:19:44;;;;;;;6.72;3.63;;;27.70;44.90;;;;;;6177555;27;80166;-73
2023/07/23 14:22:45;;;;;;;4.30;3.15;;;27.70;44.80;;;;;;6147540;27;81848;-68
2023/07/23 14:25:45;;;;;;;5.10;3.17;;;27.60;45.10;;;;;;6163852;27;81781;-69
2023/07/23 14:28:46;;;;;;;4.63;3.10;;;27.60;44.90;;;;;;6169363;27;82355;-72
2023/07/23 14:31:47;;;;;;;5.03;3.80;;;27.60;45.00;;;;;;6163180;27;84087;-66
2023/07/23 14:34:47;;;;;;;4.95;3.53;;;27.60;45.70;;;;;;6157237;27;82311;-65
2023/07/23 14:37:48;;;;;;;17.80;4.45;;;27.60;45.70;;;;;;6171135;27;81106;-66
2023/07/23 14:40:49;;;;;;;8.25;3.78;;;27.50;46.50;;;;;;6164972;27;80789;-65
2023/07/23 14:43:49;;;;;;;5.05;3.58;;;27.50;46.00;;;;;;6159810;27;81647;-67
2023/07/23 14:46:50;;;;;;;7.88;3.50;;;27.50;44.20;;;;;;6156390;27;81683;-62
2023/07/23 14:49:50;;;;;;;7.55;3.53;;;27.50;45.20;;;;;;6155491;27;80640;-62
2023/07/23 14:52:51;;;;;;;6.85;3.92;;;27.60;45.70;;;;;;6172651;27;81525;-60
2023/07/23 14:55:51;;;;;;;8.85;3.40;;;27.60;45.70;;;;;;6140736;27;80450;-59
2023/07/23 14:58:52;;;;;;;5.03;3.53;;;27.60;46.40;;;;;;6161401;27;83160;-63
2023/07/23 15:01:52;;;;;;;8.15;3.55;;;27.50;46.70;;;;;;6153915;27;83185;-63
2023/07/23 15:04:53;;;;;;;10.25;3.58;;;27.50;47.00;;;;;;6141732;27;81025;-64
2023/07/23 15:07:54;;;;;;;13.00;3.13;;;27.50;47.10;;;;;;6163893;27;80994;-61
2023/07/23 15:10:54;;;;;;;7.20;3.63;;;27.50;46.70;;;;;;6147706;27;81925;-59
2023/07/23 15:13:55;;;;;;;7.18;4.03;;;27.50;45.90;;;;;;6149329;27;80817;-61
2023/07/23 15:16:55;;;;;;;7.43;3.88;;;27.40;45.60;;;;;;6141368;27;82463;-59
2023/07/23 15:19:56;;;;;;;5.30;4.13;;;27.50;45.70;;;;;;6138913;27;81544;-60
2023/07/23 15:22:56;;;;;;;5.07;4.07;;;27.50;45.90;;;;;;6144484;27;82222;-60
2023/07/23 15:25:57;;;;;;;7.57;4.15;;;27.40;45.80;;;;;;6140285;27;81708;-61
2023/07/23 15:28:57;;;;;;;6.65;4.07;;;27.40;45.50;;;;;;6149473;27;81742;-61
2023/07/23 15:31:58;;;;;;;5.72;3.45;;;27.50;45.90;;;;;;6138755;27;82201;-61
2023/07/23 15:34:58;;;;;;;5.90;3.88;;;27.50;45.30;;;;;;6154911;27;81574;-59
2023/07/23 15:37:59;;;;;;;7.70;3.25;;;27.50;45.50;;;;;;6143392;27;82841;-60